Schrunz, Liechtenstein
Current Conditions -  °F | °C
As of 1:50 PM on Saturday 20 Dec 2014 (Local Time) from LSZR Reporting Station
Broken Clouds Broken Clouds  
Wind Chill: 41°   Ceiling: 2000
Heat Index: 46°   Visibility: 6mi
Dew Point: 39°   Wind: 13mph
Humidity: 76%   Direction: 300°WNW
Pressure: 30.3"   Gusts: NA
Location:  47.08°N, 9.93°E
Report Text: LSZR 201150Z 30011KT 9999 BKN020 08/04 Q1026 NOSIG RMK H
Loading
Personal Weather Stations






























Interactive Weather Map New forecast layout! Learn more

10-Day Weather Forecast

Advertisements
Track Severe Weather on mobile